sensor_id;sensor_type;location;lat;lon;timestamp;temperature;humidity
3842;DHT22;1936;47.074;15.336;2024-02-15T00:01:33;0.30;99.90
3842;DHT22;1936;47.074;15.336;2024-02-15T00:03:37;0.20;99.90
3842;DHT22;1936;47.074;15.336;2024-02-15T00:05:40;0.30;99.90
3842;DHT22;1936;47.074;15.336;2024-02-15T00:07:48;0.30;99.90
3842;DHT22;1936;47.074;15.336;2024-02-15T00:09:52;0.20;99.90
3842;DHT22;1936;47.074;15.336;2024-02-15T00:11:56;0.20;99.90
3842;DHT22;1936;47.074;15.336;2024-02-15T00:14:02;0.20;99.90
3842;DHT22;1936;47.074;15.336;2024-02-15T00:16:05;0.30;99.90
3842;DHT22;1936;47.074;15.336;2024-02-15T00:18:09;0.30;99.90
3842;DHT22;1936;47.074;15.336;2024-02-15T00:20:13;0.30;99.90
3842;DHT22;1936;47.074;15.336;2024-02-15T00:22:16;0.40;99.90
3842;DHT22;1936;47.074;15.336;2024-02-15T00:24:21;0.50;99.90
3842;DHT22;1936;47.074;15.336;2024-02-15T00:26:24;0.50;99.90
3842;DHT22;1936;47.074;15.336;2024-02-15T00:28:28;0.50;99.90
3842;DHT22;1936;47.074;15.336;2024-02-15T00:30:31;0.50;99.90
3842;DHT22;1936;47.074;15.336;2024-02-15T00:32:34;0.60;99.90
3842;DHT22;1936;47.074;15.336;2024-02-15T00:34:38;0.50;99.90
3842;DHT22;1936;47.074;15.336;2024-02-15T00:36:43;0.40;99.90
3842;DHT22;1936;47.074;15.336;2024-02-15T00:38:47;0.40;99.90
3842;DHT22;1936;47.074;15.336;2024-02-15T00:40:51;0.40;99.90
3842;DHT22;1936;47.074;15.336;2024-02-15T00:42:55;0.40;99.90
3842;DHT22;1936;47.074;15.336;2024-02-15T00:44:58;0.40;99.90
3842;DHT22;1936;47.074;15.336;2024-02-15T00:47:02;0.40;99.90
3842;DHT22;1936;47.074;15.336;2024-02-15T00:49:05;0.20;99.90
3842;DHT22;1936;47.074;15.336;2024-02-15T00:51:09;0.30;99.90
3842;DHT22;1936;47.074;15.336;2024-02-15T00:53:12;0.30;99.90
3842;DHT22;1936;47.074;15.336;2024-02-15T00:55:18;0.20;99.90
3842;DHT22;1936;47.074;15.336;2024-02-15T00:57:23;0.30;99.90
3842;DHT22;1936;47.074;15.336;2024-02-15T00:59:27;0.30;99.90
3842;DHT22;1936;47.074;15.336;2024-02-15T01:01:30;0.30;99.90
3842;DHT22;1936;47.074;15.336;2024-02-15T01:03:34;0.30;99.90
3842;DHT22;1936;47.074;15.336;2024-02-15T01:05:38;0.40;99.90
3842;DHT22;1936;47.074;15.336;2024-02-15T01:07:42;0.50;99.90
3842;DHT22;1936;47.074;15.336;2024-02-15T01:09:45;0.60;99.90
3842;DHT22;1936;47.074;15.336;2024-02-15T01:11:48;0.70;99.90
3842;DHT22;1936;47.074;15.336;2024-02-15T01:13:53;0.70;99.90
3842;DHT22;1936;47.074;15.336;2024-02-15T01:15:57;0.80;99.90
3842;DHT22;1936;47.074;15.336;2024-02-15T01:18:00;0.80;99.90
3842;DHT22;1936;47.074;15.336;2024-02-15T01:20:04;0.80;99.90
3842;DHT22;1936;47.074;15.336;2024-02-15T01:22:08;0.70;99.90
3842;DHT22;1936;47.074;15.336;2024-02-15T01:24:12;0.60;99.90
3842;DHT22;1936;47.074;15.336;2024-02-15T01:26:14;0.50;99.90
3842;DHT22;1936;47.074;15.336;2024-02-15T01:28:17;0.50;99.90
3842;DHT22;1936;47.074;15.336;2024-02-15T01:30:22;0.50;99.90
3842;DHT22;1936;47.074;15.336;2024-02-15T01:32:26;0.50;99.90
3842;DHT22;1936;47.074;15.336;2024-02-15T01:34:29;0.50;99.90
3842;DHT22;1936;47.074;15.336;2024-02-15T01:36:31;0.40;99.90
3842;DHT22;1936;47.074;15.336;2024-02-15T01:38:35;0.40;99.90
3842;DHT22;1936;47.074;15.336;2024-02-15T01:40:38;0.50;99.90
3842;DHT22;1936;47.074;15.336;2024-02-15T01:42:42;0.50;99.90
3842;DHT22;1936;47.074;15.336;2024-02-15T01:44:47;0.50;99.90
3842;DHT22;1936;47.074;15.336;2024-02-15T01:46:53;0.50;99.90
3842;DHT22;1936;47.074;15.336;2024-02-15T01:48:56;0.60;99.90
3842;DHT22;1936;47.074;15.336;2024-02-15T01:51:00;0.60;99.90
3842;DHT22;1936;47.074;15.336;2024-02-15T01:53:07;0.60;99.90
3842;DHT22;1936;47.074;15.336;2024-02-15T01:55:10;0.60;99.90
3842;DHT22;1936;47.074;15.336;2024-02-15T01:57:14;0.60;99.90
3842;DHT22;1936;47.074;15.336;2024-02-15T01:59:18;0.60;99.90
3842;DHT22;1936;47.074;15.336;2024-02-15T02:01:22;0.60;99.90
3842;DHT22;1936;47.074;15.336;2024-02-15T02:03:27;0.60;99.90
3842;DHT22;1936;47.074;15.336;2024-02-15T02:05:31;0.60;99.90
3842;DHT22;1936;47.074;15.336;2024-02-15T02:07:35;0.70;99.90
3842;DHT22;1936;47.074;15.336;2024-02-15T02:09:38;0.90;99.90
3842;DHT22;1936;47.074;15.336;2024-02-15T02:11:42;1.00;99.90
3842;DHT22;1936;47.074;15.336;2024-02-15T02:13:47;1.00;99.90
3842;DHT22;1936;47.074;15.336;2024-02-15T02:15:51;1.10;99.90
3842;DHT22;1936;47.074;15.336;2024-02-15T02:17:54;1.00;99.90
3842;DHT22;1936;47.074;15.336;2024-02-15T02:19:59;1.00;99.90
3842;DHT22;1936;47.074;15.336;2024-02-15T02:22:03;0.90;99.90
3842;DHT22;1936;47.074;15.336;2024-02-15T02:24:12;0.90;99.90
3842;DHT22;1936;47.074;15.336;2024-02-15T02:26:18;1.00;99.90
3842;DHT22;1936;47.074;15.336;2024-02-15T02:28:23;0.90;99.90
3842;DHT22;1936;47.074;15.336;2024-02-15T02:30:26;0.90;99.90
3842;DHT22;1936;47.074;15.336;2024-02-15T02:32:32;0.90;99.90
3842;DHT22;1936;47.074;15.336;2024-02-15T02:34:36;1.00;99.90
3842;DHT22;1936;47.074;15.336;2024-02-15T02:36:43;1.00;99.90
3842;DHT22;1936;47.074;15.336;2024-02-15T02:38:47;1.00;99.90
3842;DHT22;1936;47.074;15.336;2024-02-15T02:40:52;1.00;99.90
3842;DHT22;1936;47.074;15.336;2024-02-15T02:42:57;1.00;99.90
3842;DHT22;1936;47.074;15.336;2024-02-15T02:45:01;1.00;99.90
3842;DHT22;1936;47.074;15.336;2024-02-15T02:47:05;1.00;99.90
3842;DHT22;1936;47.074;15.336;2024-02-15T02:49:08;1.10;99.90
3842;DHT22;1936;47.074;15.336;2024-02-15T02:51:12;1.20;99.90
3842;DHT22;1936;47.074;15.336;2024-02-15T02:53:15;1.20;99.90
3842;DHT22;1936;47.074;15.336;2024-02-15T02:55:18;1.20;99.90
3842;DHT22;1936;47.074;15.336;2024-02-15T02:57:22;1.30;99.90
3842;DHT22;1936;47.074;15.336;2024-02-15T02:59:27;1.40;99.90
3842;DHT22;1936;47.074;15.336;2024-02-15T03:01:31;1.60;99.90
3842;DHT22;1936;47.074;15.336;2024-02-15T03:03:36;1.60;99.90
3842;DHT22;1936;47.074;15.336;2024-02-15T03:05:38;1.60;99.90
3842;DHT22;1936;47.074;15.336;2024-02-15T03:07:42;1.60;99.90
3842;DHT22;1936;47.074;15.336;2024-02-15T03:09:46;1.60;99.90
3842;DHT22;1936;47.074;15.336;2024-02-15T03:11:49;1.60;99.90
3842;DHT22;1936;47.074;15.336;2024-02-15T03:13:52;1.70;99.90
3842;DHT22;1936;47.074;15.336;2024-02-15T03:15:57;1.70;99.90
3842;DHT22;1936;47.074;15.336;2024-02-15T03:18:01;1.80;99.90
3842;DHT22;1936;47.074;15.336;2024-02-15T03:20:10;1.90;99.90
3842;DHT22;1936;47.074;15.336;2024-02-15T03:22:22;1.90;99.90
3842;DHT22;1936;47.074;15.336;2024-02-15T03:24:27;1.80;99.90
3842;DHT22;1936;47.074;15.336;2024-02-15T03:26:32;1.90;99.90
3842;DHT22;1936;47.074;15.336;2024-02-15T03:28:39;1.80;99.90
3842;DHT22;1936;47.074;15.336;2024-02-15T03:30:42;1.90;99.90
3842;DHT22;1936;47.074;15.336;2024-02-15T03:32:47;1.90;99.90
3842;DHT22;1936;47.074;15.336;2024-02-15T03:34:50;1.90;99.90
3842;DHT22;1936;47.074;15.336;2024-02-15T03:36:56;1.90;99.90
3842;DHT22;1936;47.074;15.336;2024-02-15T03:38:59;1.70;99.90
3842;DHT22;1936;47.074;15.336;2024-02-15T03:41:03;1.70;99.90
3842;DHT22;1936;47.074;15.336;2024-02-15T03:43:08;1.80;99.90
3842;DHT22;1936;47.074;15.336;2024-02-15T03:45:12;1.90;99.90
3842;DHT22;1936;47.074;15.336;2024-02-15T03:47:15;1.90;99.90
3842;DHT22;1936;47.074;15.336;2024-02-15T03:49:20;1.90;99.90
3842;DHT22;1936;47.074;15.336;2024-02-15T03:51:25;1.90;99.90
3842;DHT22;1936;47.074;15.336;2024-02-15T03:53:28;1.90;99.90
3842;DHT22;1936;47.074;15.336;2024-02-15T03:55:32;1.90;99.90
3842;DHT22;1936;47.074;15.336;2024-02-15T03:57:38;1.90;99.90
3842;DHT22;1936;47.074;15.336;2024-02-15T03:59:43;1.90;99.90
3842;DHT22;1936;47.074;15.336;2024-02-15T04:01:49;1.90;99.90
3842;DHT22;1936;47.074;15.336;2024-02-15T04:03:52;1.80;99.90
3842;DHT22;1936;47.074;15.336;2024-02-15T04:05:58;2.00;99.90
3842;DHT22;1936;47.074;15.336;2024-02-15T04:08:02;2.00;99.90
3842;DHT22;1936;47.074;15.336;2024-02-15T04:10:07;2.00;99.90
3842;DHT22;1936;47.074;15.336;2024-02-15T04:12:11;2.00;99.90
3842;DHT22;1936;47.074;15.336;2024-02-15T04:14:16;1.90;99.90
3842;DHT22;1936;47.074;15.336;2024-02-15T04:16:20;1.90;99.90
3842;DHT22;1936;47.074;15.336;2024-02-15T04:18:23;2.00;99.90
3842;DHT22;1936;47.074;15.336;2024-02-15T04:20:27;2.00;99.90
3842;DHT22;1936;47.074;15.336;2024-02-15T04:22:32;2.00;99.90
3842;DHT22;1936;47.074;15.336;2024-02-15T04:24:38;2.00;99.90
3842;DHT22;1936;47.074;15.336;2024-02-15T04:26:42;2.00;99.90
3842;DHT22;1936;47.074;15.336;2024-02-15T04:28:44;2.00;99.90
3842;DHT22;1936;47.074;15.336;2024-02-15T04:30:49;2.00;99.90
3842;DHT22;1936;47.074;15.336;2024-02-15T04:32:51;2.00;99.90
3842;DHT22;1936;47.074;15.336;2024-02-15T04:34:56;2.00;99.90
3842;DHT22;1936;47.074;15.336;2024-02-15T04:36:58;2.00;99.90
3842;DHT22;1936;47.074;15.336;2024-02-15T04:39:03;1.90;99.90
3842;DHT22;1936;47.074;15.336;2024-02-15T04:41:07;2.00;99.90
3842;DHT22;1936;47.074;15.336;2024-02-15T04:43:12;2.00;99.90
3842;DHT22;1936;47.074;15.336;2024-02-15T04:45:17;2.10;99.90
3842;DHT22;1936;47.074;15.336;2024-02-15T04:47:21;2.20;99.90
3842;DHT22;1936;47.074;15.336;2024-02-15T04:49:24;2.30;99.90
3842;DHT22;1936;47.074;15.336;2024-02-15T04:51:28;2.30;99.90
3842;DHT22;1936;47.074;15.336;2024-02-15T04:53:31;2.40;99.90
3842;DHT22;1936;47.074;15.336;2024-02-15T04:55:36;2.40;99.90
3842;DHT22;1936;47.074;15.336;2024-02-15T04:57:39;2.40;99.90
3842;DHT22;1936;47.074;15.336;2024-02-15T04:59:42;2.40;99.90
3842;DHT22;1936;47.074;15.336;2024-02-15T05:01:49;2.30;99.90
3842;DHT22;1936;47.074;15.336;2024-02-15T05:03:53;2.30;99.90
3842;DHT22;1936;47.074;15.336;2024-02-15T05:05:57;2.20;99.90
3842;DHT22;1936;47.074;15.336;2024-02-15T05:08:01;2.30;99.90
3842;DHT22;1936;47.074;15.336;2024-02-15T05:10:06;2.30;99.90
3842;DHT22;1936;47.074;15.336;2024-02-15T05:12:22;2.30;99.90
3842;DHT22;1936;47.074;15.336;2024-02-15T05:14:26;2.40;99.90
3842;DHT22;1936;47.074;15.336;2024-02-15T05:16:30;2.40;99.90
3842;DHT22;1936;47.074;15.336;2024-02-15T05:18:33;2.40;99.90
3842;DHT22;1936;47.074;15.336;2024-02-15T05:20:37;2.40;99.90
3842;DHT22;1936;47.074;15.336;2024-02-15T05:22:43;2.50;99.90
3842;DHT22;1936;47.074;15.336;2024-02-15T05:24:52;2.50;99.90
3842;DHT22;1936;47.074;15.336;2024-02-15T05:26:56;2.50;99.90
3842;DHT22;1936;47.074;15.336;2024-02-15T05:29:01;2.60;99.90
3842;DHT22;1936;47.074;15.336;2024-02-15T05:31:10;2.60;99.90
3842;DHT22;1936;47.074;15.336;2024-02-15T05:33:13;2.60;99.90
3842;DHT22;1936;47.074;15.336;2024-02-15T05:35:16;2.70;99.90
3842;DHT22;1936;47.074;15.336;2024-02-15T05:37:19;2.70;99.90
3842;DHT22;1936;47.074;15.336;2024-02-15T05:39:23;2.80;99.90
3842;DHT22;1936;47.074;15.336;2024-02-15T05:41:27;2.80;99.90
3842;DHT22;1936;47.074;15.336;2024-02-15T05:43:30;2.80;99.90
3842;DHT22;1936;47.074;15.336;2024-02-15T05:45:38;2.80;99.90
3842;DHT22;1936;47.074;15.336;2024-02-15T05:47:42;2.70;99.90
3842;DHT22;1936;47.074;15.336;2024-02-15T05:49:45;2.80;99.90
3842;DHT22;1936;47.074;15.336;2024-02-15T05:51:49;2.90;99.90
3842;DHT22;1936;47.074;15.336;2024-02-15T05:53:53;2.90;99.90
3842;DHT22;1936;47.074;15.336;2024-02-15T05:56:01;2.90;99.90
3842;DHT22;1936;47.074;15.336;2024-02-15T05:58:06;2.90;99.90
3842;DHT22;1936;47.074;15.336;2024-02-15T06:00:12;2.90;99.90
3842;DHT22;1936;47.074;15.336;2024-02-15T06:02:25;3.10;99.90
3842;DHT22;1936;47.074;15.336;2024-02-15T06:04:28;3.10;99.90
3842;DHT22;1936;47.074;15.336;2024-02-15T06:06:32;3.10;99.90
3842;DHT22;1936;47.074;15.336;2024-02-15T06:08:37;3.20;99.90
3842;DHT22;1936;47.074;15.336;2024-02-15T06:10:40;3.30;99.90
3842;DHT22;1936;47.074;15.336;2024-02-15T06:12:44;3.40;99.90
3842;DHT22;1936;47.074;15.336;2024-02-15T06:14:47;3.40;99.90
3842;DHT22;1936;47.074;15.336;2024-02-15T06:16:51;3.40;99.90
3842;DHT22;1936;47.074;15.336;2024-02-15T06:18:58;3.40;99.90
3842;DHT22;1936;47.074;15.336;2024-02-15T06:21:02;3.50;99.90
3842;DHT22;1936;47.074;15.336;2024-02-15T06:23:06;3.50;99.90
3842;DHT22;1936;47.074;15.336;2024-02-15T06:25:10;3.50;99.90
3842;DHT22;1936;47.074;15.336;2024-02-15T06:27:13;3.50;99.90
3842;DHT22;1936;47.074;15.336;2024-02-15T06:29:17;3.60;99.90
3842;DHT22;1936;47.074;15.336;2024-02-15T06:31:50;3.70;99.90
3842;DHT22;1936;47.074;15.336;2024-02-15T06:34:12;3.80;99.90
3842;DHT22;1936;47.074;15.336;2024-02-15T06:36:33;3.80;99.90
3842;DHT22;1936;47.074;15.336;2024-02-15T06:38:54;3.80;99.90
3842;DHT22;1936;47.074;15.336;2024-02-15T06:41:14;3.90;99.90
3842;DHT22;1936;47.074;15.336;2024-02-15T06:43:18;4.10;99.90
3842;DHT22;1936;47.074;15.336;2024-02-15T06:45:22;4.20;99.90
3842;DHT22;1936;47.074;15.336;2024-02-15T06:47:26;4.30;99.90
3842;DHT22;1936;47.074;15.336;2024-02-15T06:49:31;4.40;99.90
3842;DHT22;1936;47.074;15.336;2024-02-15T06:51:35;4.50;99.90
3842;DHT22;1936;47.074;15.336;2024-02-15T06:53:39;4.70;99.90
3842;DHT22;1936;47.074;15.336;2024-02-15T06:55:42;4.80;99.90
3842;DHT22;1936;47.074;15.336;2024-02-15T06:57:46;4.90;99.90
3842;DHT22;1936;47.074;15.336;2024-02-15T06:59:50;5.00;99.90
3842;DHT22;1936;47.074;15.336;2024-02-15T07:01:53;5.10;99.90
3842;DHT22;1936;47.074;15.336;2024-02-15T07:03:57;5.20;99.90
3842;DHT22;1936;47.074;15.336;2024-02-15T07:06:02;5.30;99.90
3842;DHT22;1936;47.074;15.336;2024-02-15T07:08:07;5.50;99.90
3842;DHT22;1936;47.074;15.336;2024-02-15T07:10:12;5.60;99.90
3842;DHT22;1936;47.074;15.336;2024-02-15T07:12:18;5.80;99.90
3842;DHT22;1936;47.074;15.336;2024-02-15T07:14:23;5.90;99.90
3842;DHT22;1936;47.074;15.336;2024-02-15T07:16:27;6.10;99.90
3842;DHT22;1936;47.074;15.336;2024-02-15T07:18:29;6.20;99.90
3842;DHT22;1936;47.074;15.336;2024-02-15T07:20:33;6.30;99.90
3842;DHT22;1936;47.074;15.336;2024-02-15T07:22:38;6.40;99.90
3842;DHT22;1936;47.074;15.336;2024-02-15T07:24:41;6.40;99.90
3842;DHT22;1936;47.074;15.336;2024-02-15T07:26:44;6.50;99.90
3842;DHT22;1936;47.074;15.336;2024-02-15T07:28:48;6.60;99.90
3842;DHT22;1936;47.074;15.336;2024-02-15T07:30:52;6.60;99.90
3842;DHT22;1936;47.074;15.336;2024-02-15T07:32:57;6.50;99.90
3842;DHT22;1936;47.074;15.336;2024-02-15T07:35:01;6.60;99.90
3842;DHT22;1936;47.074;15.336;2024-02-15T07:37:07;6.60;99.90
3842;DHT22;1936;47.074;15.336;2024-02-15T07:39:13;6.80;99.90
3842;DHT22;1936;47.074;15.336;2024-02-15T07:41:26;6.90;99.90
3842;DHT22;1936;47.074;15.336;2024-02-15T07:43:30;7.00;99.90
3842;DHT22;1936;47.074;15.336;2024-02-15T07:45:32;7.20;99.90
3842;DHT22;1936;47.074;15.336;2024-02-15T07:47:39;7.60;99.90
3842;DHT22;1936;47.074;15.336;2024-02-15T07:49:42;7.90;99.90
3842;DHT22;1936;47.074;15.336;2024-02-15T07:51:46;8.20;99.90
3842;DHT22;1936;47.074;15.336;2024-02-15T07:53:55;8.50;99.90
3842;DHT22;1936;47.074;15.336;2024-02-15T08:00:10;9.50;99.90
3842;DHT22;1936;47.074;15.336;2024-02-15T08:02:14;9.10;99.90
3842;DHT22;1936;47.074;15.336;2024-02-15T08:04:24;8.90;99.90
3842;DHT22;1936;47.074;15.336;2024-02-15T08:06:28;9.20;99.90
3842;DHT22;1936;47.074;15.336;2024-02-15T08:08:34;9.20;99.90
3842;DHT22;1936;47.074;15.336;2024-02-15T08:10:38;8.80;99.90
3842;DHT22;1936;47.074;15.336;2024-02-15T08:12:44;8.70;99.90
3842;DHT22;1936;47.074;15.336;2024-02-15T08:14:48;8.80;99.90
3842;DHT22;1936;47.074;15.336;2024-02-15T08:16:51;8.80;99.90
3842;DHT22;1936;47.074;15.336;2024-02-15T08:18:55;9.10;99.90
3842;DHT22;1936;47.074;15.336;2024-02-15T08:20:59;9.60;99.90
3842;DHT22;1936;47.074;15.336;2024-02-15T08:23:02;10.00;99.90
3842;DHT22;1936;47.074;15.336;2024-02-15T08:25:07;10.60;99.90
3842;DHT22;1936;47.074;15.336;2024-02-15T08:27:12;11.30;99.90
3842;DHT22;1936;47.074;15.336;2024-02-15T08:29:19;11.40;99.30
3842;DHT22;1936;47.074;15.336;2024-02-15T08:31:23;11.40;97.30
3842;DHT22;1936;47.074;15.336;2024-02-15T08:33:26;11.90;92.90
3842;DHT22;1936;47.074;15.336;2024-02-15T08:35:31;11.90;90.70
3842;DHT22;1936;47.074;15.336;2024-02-15T08:37:36;11.90;91.20
3842;DHT22;1936;47.074;15.336;2024-02-15T08:39:40;11.70;90.60
3842;DHT22;1936;47.074;15.336;2024-02-15T08:41:46;11.70;95.70
3842;DHT22;1936;47.074;15.336;2024-02-15T08:43:50;11.60;98.30
3842;DHT22;1936;47.074;15.336;2024-02-15T08:45:55;11.90;95.00
3842;DHT22;1936;47.074;15.336;2024-02-15T08:47:58;12.00;91.30
3842;DHT22;1936;47.074;15.336;2024-02-15T08:50:02;12.70;91.70
3842;DHT22;1936;47.074;15.336;2024-02-15T08:52:05;13.30;91.20
3842;DHT22;1936;47.074;15.336;2024-02-15T08:54:09;14.30;78.80
3842;DHT22;1936;47.074;15.336;2024-02-15T08:56:13;14.60;76.80
3842;DHT22;1936;47.074;15.336;2024-02-15T08:58:17;14.80;77.40
3842;DHT22;1936;47.074;15.336;2024-02-15T09:00:21;14.80;71.90
3842;DHT22;1936;47.074;15.336;2024-02-15T09:02:25;15.00;65.10
3842;DHT22;1936;47.074;15.336;2024-02-15T09:04:28;14.70;66.70
3842;DHT22;1936;47.074;15.336;2024-02-15T09:06:32;14.60;69.80
3842;DHT22;1936;47.074;15.336;2024-02-15T09:12:45;17.40;69.80
3842;DHT22;1936;47.074;15.336;2024-02-15T09:14:51;16.90;64.80
3842;DHT22;1936;47.074;15.336;2024-02-15T09:16:54;17.10;64.90
3842;DHT22;1936;47.074;15.336;2024-02-15T09:18:59;17.70;61.90
3842;DHT22;1936;47.074;15.336;2024-02-15T09:21:04;18.50;62.70
3842;DHT22;1936;47.074;15.336;2024-02-15T09:23:08;19.60;56.50
3842;DHT22;1936;47.074;15.336;2024-02-15T09:25:14;18.60;54.50
3842;DHT22;1936;47.074;15.336;2024-02-15T09:27:17;18.10;56.10
3842;DHT22;1936;47.074;15.336;2024-02-15T09:29:21;17.70;55.60
3842;DHT22;1936;47.074;15.336;2024-02-15T09:31:24;16.60;53.60
3842;DHT22;1936;47.074;15.336;2024-02-15T09:33:27;16.20;56.60
3842;DHT22;1936;47.074;15.336;2024-02-15T09:35:32;15.80;56.30
3842;DHT22;1936;47.074;15.336;2024-02-15T09:37:36;15.00;59.30
3842;DHT22;1936;47.074;15.336;2024-02-15T09:39:41;14.70;60.30
3842;DHT22;1936;47.074;15.336;2024-02-15T09:41:44;14.60;60.60
3842;DHT22;1936;47.074;15.336;2024-02-15T09:43:47;14.60;60.00
3842;DHT22;1936;47.074;15.336;2024-02-15T09:45:51;14.60;62.60
3842;DHT22;1936;47.074;15.336;2024-02-15T09:47:54;14.80;63.70
3842;DHT22;1936;47.074;15.336;2024-02-15T09:50:01;14.80;66.10
3842;DHT22;1936;47.074;15.336;2024-02-15T09:52:06;14.60;66.60
3842;DHT22;1936;47.074;15.336;2024-02-15T09:54:14;14.50;68.30
3842;DHT22;1936;47.074;15.336;2024-02-15T09:56:24;15.00;66.50
3842;DHT22;1936;47.074;15.336;2024-02-15T09:58:28;15.20;62.70
3842;DHT22;1936;47.074;15.336;2024-02-15T10:00:36;15.20;62.80
3842;DHT22;1936;47.074;15.336;2024-02-15T10:02:40;15.50;60.10
3842;DHT22;1936;47.074;15.336;2024-02-15T10:04:44;15.30;60.30
3842;DHT22;1936;47.074;15.336;2024-02-15T10:06:50;15.40;61.10
3842;DHT22;1936;47.074;15.336;2024-02-15T10:09:24;15.40;58.90
3842;DHT22;1936;47.074;15.336;2024-02-15T10:11:29;15.90;59.90
3842;DHT22;1936;47.074;15.336;2024-02-15T10:13:32;15.80;57.50
3842;DHT22;1936;47.074;15.336;2024-02-15T10:15:37;15.80;56.40
3842;DHT22;1936;47.074;15.336;2024-02-15T10:17:54;15.20;61.00
3842;DHT22;1936;47.074;15.336;2024-02-15T10:20:04;15.10;60.00
3842;DHT22;1936;47.074;15.336;2024-02-15T10:22:08;15.10;59.20
3842;DHT22;1936;47.074;15.336;2024-02-15T10:24:13;14.90;57.10
3842;DHT22;1936;47.074;15.336;2024-02-15T10:26:20;14.90;57.10
3842;DHT22;1936;47.074;15.336;2024-02-15T10:28:25;15.00;58.80
3842;DHT22;1936;47.074;15.336;2024-02-15T10:30:30;14.80;57.30
3842;DHT22;1936;47.074;15.336;2024-02-15T10:32:34;14.90;58.30
3842;DHT22;1936;47.074;15.336;2024-02-15T10:34:43;15.30;57.90
3842;DHT22;1936;47.074;15.336;2024-02-15T10:36:48;15.10;56.00
3842;DHT22;1936;47.074;15.336;2024-02-15T10:38:52;14.90;58.20
3842;DHT22;1936;47.074;15.336;2024-02-15T10:41:03;14.90;57.70
3842;DHT22;1936;47.074;15.336;2024-02-15T10:43:07;14.90;57.30
3842;DHT22;1936;47.074;15.336;2024-02-15T10:45:15;15.00;58.60
3842;DHT22;1936;47.074;15.336;2024-02-15T10:47:20;15.10;58.70
3842;DHT22;1936;47.074;15.336;2024-02-15T10:49:27;15.20;58.90
3842;DHT22;1936;47.074;15.336;2024-02-15T10:51:31;15.20;59.80
3842;DHT22;1936;47.074;15.336;2024-02-15T10:53:39;15.30;56.30
3842;DHT22;1936;47.074;15.336;2024-02-15T10:55:53;15.30;58.30
3842;DHT22;1936;47.074;15.336;2024-02-15T10:58:01;15.60;56.10
3842;DHT22;1936;47.074;15.336;2024-02-15T11:00:06;15.80;55.50
3842;DHT22;1936;47.074;15.336;2024-02-15T11:02:29;16.00;56.30
3842;DHT22;1936;47.074;15.336;2024-02-15T11:04:35;16.60;54.60
3842;DHT22;1936;47.074;15.336;2024-02-15T11:06:39;16.40;52.70
3842;DHT22;1936;47.074;15.336;2024-02-15T11:08:44;16.30;52.90
3842;DHT22;1936;47.074;15.336;2024-02-15T11:10:48;16.50;53.60
3842;DHT22;1936;47.074;15.336;2024-02-15T11:12:52;16.40;52.20
3842;DHT22;1936;47.074;15.336;2024-02-15T11:14:57;16.30;53.90
3842;DHT22;1936;47.074;15.336;2024-02-15T11:17:01;16.10;53.00
3842;DHT22;1936;47.074;15.336;2024-02-15T11:19:07;16.30;55.70
3842;DHT22;1936;47.074;15.336;2024-02-15T11:21:12;16.50;54.30
3842;DHT22;1936;47.074;15.336;2024-02-15T11:23:26;16.60;56.20
3842;DHT22;1936;47.074;15.336;2024-02-15T11:25:33;16.20;55.20
3842;DHT22;1936;47.074;15.336;2024-02-15T11:27:39;16.30;55.50
3842;DHT22;1936;47.074;15.336;2024-02-15T11:29:49;16.40;55.70
3842;DHT22;1936;47.074;15.336;2024-02-15T11:31:56;16.70;53.70
3842;DHT22;1936;47.074;15.336;2024-02-15T11:33:59;16.80;54.40
3842;DHT22;1936;47.074;15.336;2024-02-15T11:36:31;17.10;53.50
3842;DHT22;1936;47.074;15.336;2024-02-15T11:38:37;17.00;53.40
3842;DHT22;1936;47.074;15.336;2024-02-15T11:41:03;16.80;52.20
3842;DHT22;1936;47.074;15.336;2024-02-15T11:43:06;16.90;55.90
3842;DHT22;1936;47.074;15.336;2024-02-15T11:45:12;16.70;51.10
3842;DHT22;1936;47.074;15.336;2024-02-15T11:47:16;16.40;52.70
3842;DHT22;1936;47.074;15.336;2024-02-15T11:49:21;16.50;54.70
3842;DHT22;1936;47.074;15.336;2024-02-15T11:51:28;15.90;59.20
3842;DHT22;1936;47.074;15.336;2024-02-15T11:53:31;15.80;60.20
3842;DHT22;1936;47.074;15.336;2024-02-15T11:55:35;15.90;54.90
3842;DHT22;1936;47.074;15.336;2024-02-15T11:57:37;16.20;53.80
3842;DHT22;1936;47.074;15.336;2024-02-15T11:59:49;16.00;58.30
3842;DHT22;1936;47.074;15.336;2024-02-15T12:02:13;15.80;54.00
3842;DHT22;1936;47.074;15.336;2024-02-15T12:04:35;15.80;53.10
3842;DHT22;1936;47.074;15.336;2024-02-15T12:06:59;15.80;53.90
3842;DHT22;1936;47.074;15.336;2024-02-15T12:09:20;15.60;54.00
3842;DHT22;1936;47.074;15.336;2024-02-15T12:11:41;15.60;55.50
3842;DHT22;1936;47.074;15.336;2024-02-15T12:14:02;15.70;53.10
3842;DHT22;1936;47.074;15.336;2024-02-15T12:16:23;15.90;55.40
3842;DHT22;1936;47.074;15.336;2024-02-15T12:18:45;15.90;53.40
3842;DHT22;1936;47.074;15.336;2024-02-15T12:20:56;15.90;54.00
3842;DHT22;1936;47.074;15.336;2024-02-15T12:23:00;15.80;54.10
3842;DHT22;1936;47.074;15.336;2024-02-15T12:25:04;15.60;54.00
3842;DHT22;1936;47.074;15.336;2024-02-15T12:27:14;15.80;54.90
3842;DHT22;1936;47.074;15.336;2024-02-15T12:29:18;15.70;55.10
3842;DHT22;1936;47.074;15.336;2024-02-15T12:31:22;15.50;56.20
3842;DHT22;1936;47.074;15.336;2024-02-15T12:33:25;15.30;56.60
3842;DHT22;1936;47.074;15.336;2024-02-15T12:35:29;15.30;56.70
3842;DHT22;1936;47.074;15.336;2024-02-15T12:37:34;15.20;57.00
3842;DHT22;1936;47.074;15.336;2024-02-15T12:39:38;15.10;57.70
3842;DHT22;1936;47.074;15.336;2024-02-15T12:41:48;15.00;58.10
3842;DHT22;1936;47.074;15.336;2024-02-15T12:43:53;14.90;58.20
3842;DHT22;1936;47.074;15.336;2024-02-15T12:45:59;14.90;59.90
3842;DHT22;1936;47.074;15.336;2024-02-15T12:48:04;14.80;58.90
3842;DHT22;1936;47.074;15.336;2024-02-15T12:50:13;14.80;59.50
3842;DHT22;1936;47.074;15.336;2024-02-15T12:52:35;14.80;59.10
3842;DHT22;1936;47.074;15.336;2024-02-15T12:54:38;14.70;58.20
3842;DHT22;1936;47.074;15.336;2024-02-15T12:56:44;14.80;59.50
3842;DHT22;1936;47.074;15.336;2024-02-15T12:58:47;14.80;59.50
3842;DHT22;1936;47.074;15.336;2024-02-15T13:00:54;14.60;60.60
3842;DHT22;1936;47.074;15.336;2024-02-15T13:03:02;14.80;60.20
3842;DHT22;1936;47.074;15.336;2024-02-15T13:05:07;14.90;59.40
3842;DHT22;1936;47.074;15.336;2024-02-15T13:07:10;15.30;58.20
3842;DHT22;1936;47.074;15.336;2024-02-15T13:09:15;15.30;57.20
3842;DHT22;1936;47.074;15.336;2024-02-15T13:11:18;15.40;57.60
3842;DHT22;1936;47.074;15.336;2024-02-15T13:13:22;15.40;56.70
3842;DHT22;1936;47.074;15.336;2024-02-15T13:15:25;15.60;56.60
3842;DHT22;1936;47.074;15.336;2024-02-15T13:17:35;15.90;55.20
3842;DHT22;1936;47.074;15.336;2024-02-15T13:19:38;16.00;56.00
3842;DHT22;1936;47.074;15.336;2024-02-15T13:21:46;16.60;55.30
3842;DHT22;1936;47.074;15.336;2024-02-15T13:23:55;17.70;55.00
3842;DHT22;1936;47.074;15.336;2024-02-15T13:26:00;18.80;50.20
3842;DHT22;1936;47.074;15.336;2024-02-15T13:28:06;19.40;48.40
3842;DHT22;1936;47.074;15.336;2024-02-15T13:30:11;19.90;48.30
3842;DHT22;1936;47.074;15.336;2024-02-15T13:32:15;19.70;46.10
3842;DHT22;1936;47.074;15.336;2024-02-15T13:34:18;18.90;49.20
3842;DHT22;1936;47.074;15.336;2024-02-15T13:36:23;19.20;47.90
3842;DHT22;1936;47.074;15.336;2024-02-15T13:38:26;19.80;48.60
3842;DHT22;1936;47.074;15.336;2024-02-15T13:40:30;19.80;47.60
3842;DHT22;1936;47.074;15.336;2024-02-15T13:42:35;19.90;46.10